sensor_id;sensor_type;location;lat;lon;timestamp;temperature;humidity
36690;DHT22;22676;51.120;3.702;2023-01-30T00:00:53;25.30;35.60
36690;DHT22;22676;51.120;3.702;2023-01-30T00:03:19;25.30;35.60
36690;DHT22;22676;51.120;3.702;2023-01-30T00:05:45;25.30;35.40
36690;DHT22;22676;51.120;3.702;2023-01-30T00:08:10;25.30;35.50
36690;DHT22;22676;51.120;3.702;2023-01-30T00:10:36;25.30;35.50
36690;DHT22;22676;51.120;3.702;2023-01-30T00:13:02;25.30;35.60
36690;DHT22;22676;51.120;3.702;2023-01-30T00:15:27;25.40;35.50
36690;DHT22;22676;51.120;3.702;2023-01-30T00:17:53;25.50;35.40
36690;DHT22;22676;51.120;3.702;2023-01-30T00:20:18;25.50;35.30
36690;DHT22;22676;51.120;3.702;2023-01-30T00:22:44;25.60;35.40
36690;DHT22;22676;51.120;3.702;2023-01-30T00:25:09;25.60;35.20
36690;DHT22;22676;51.120;3.702;2023-01-30T00:27:35;25.60;35.40
36690;DHT22;22676;51.120;3.702;2023-01-30T00:30:01;25.50;35.30
36690;DHT22;22676;51.120;3.702;2023-01-30T00:32:30;25.60;35.40
36690;DHT22;22676;51.120;3.702;2023-01-30T00:34:55;25.60;35.30
36690;DHT22;22676;51.120;3.702;2023-01-30T00:37:21;25.60;35.40
36690;DHT22;22676;51.120;3.702;2023-01-30T00:39:47;25.70;35.40
36690;DHT22;22676;51.120;3.702;2023-01-30T00:42:12;25.80;34.90
36690;DHT22;22676;51.120;3.702;2023-01-30T00:44:56;25.80;34.70
36690;DHT22;22676;51.120;3.702;2023-01-30T00:47:40;25.70;35.00
36690;DHT22;22676;51.120;3.702;2023-01-30T00:50:06;25.70;35.20
36690;DHT22;22676;51.120;3.702;2023-01-30T00:52:31;25.70;35.20
36690;DHT22;22676;51.120;3.702;2023-01-30T00:54:57;25.80;35.10
36690;DHT22;22676;51.120;3.702;2023-01-30T00:57:22;25.80;35.10
36690;DHT22;22676;51.120;3.702;2023-01-30T00:59:48;25.80;35.00
36690;DHT22;22676;51.120;3.702;2023-01-30T01:02:13;25.80;35.10
36690;DHT22;22676;51.120;3.702;2023-01-30T01:04:39;25.80;35.10
36690;DHT22;22676;51.120;3.702;2023-01-30T01:07:11;25.80;35.20
36690;DHT22;22676;51.120;3.702;2023-01-30T01:09:37;25.70;35.30
36690;DHT22;22676;51.120;3.702;2023-01-30T01:12:03;25.70;35.40
36690;DHT22;22676;51.120;3.702;2023-01-30T01:14:28;25.60;35.30
36690;DHT22;22676;51.120;3.702;2023-01-30T01:16:54;25.70;35.30
36690;DHT22;22676;51.120;3.702;2023-01-30T01:19:19;25.80;35.00
36690;DHT22;22676;51.120;3.702;2023-01-30T01:21:45;25.80;35.00
36690;DHT22;22676;51.120;3.702;2023-01-30T01:24:11;25.80;35.10
36690;DHT22;22676;51.120;3.702;2023-01-30T01:26:37;25.70;35.20
36690;DHT22;22676;51.120;3.702;2023-01-30T01:29:03;25.70;35.20
36690;DHT22;22676;51.120;3.702;2023-01-30T01:31:28;25.60;35.30
36690;DHT22;22676;51.120;3.702;2023-01-30T01:33:54;25.50;35.30
36690;DHT22;22676;51.120;3.702;2023-01-30T01:36:19;25.40;35.40
36690;DHT22;22676;51.120;3.702;2023-01-30T01:38:45;25.40;35.60
36690;DHT22;22676;51.120;3.702;2023-01-30T01:41:11;25.30;35.40
36690;DHT22;22676;51.120;3.702;2023-01-30T01:43:58;25.20;35.40
36690;DHT22;22676;51.120;3.702;2023-01-30T01:46:24;25.00;35.50
36690;DHT22;22676;51.120;3.702;2023-01-30T01:48:55;24.80;36.00
36690;DHT22;22676;51.120;3.702;2023-01-30T01:51:33;24.80;35.90
36690;DHT22;22676;51.120;3.702;2023-01-30T01:54:03;24.80;36.50
36690;DHT22;22676;51.120;3.702;2023-01-30T01:56:30;24.80;35.90
36690;DHT22;22676;51.120;3.702;2023-01-30T01:58:58;24.80;35.90
36690;DHT22;22676;51.120;3.702;2023-01-30T02:01:25;24.70;36.00
36690;DHT22;22676;51.120;3.702;2023-01-30T02:03:51;24.70;36.20
36690;DHT22;22676;51.120;3.702;2023-01-30T02:06:18;24.60;36.10
36690;DHT22;22676;51.120;3.702;2023-01-30T02:08:48;24.60;36.20
36690;DHT22;22676;51.120;3.702;2023-01-30T02:11:37;24.60;36.30
36690;DHT22;22676;51.120;3.702;2023-01-30T02:14:00;24.60;36.30
36690;DHT22;22676;51.120;3.702;2023-01-30T02:16:26;24.50;36.30
36690;DHT22;22676;51.120;3.702;2023-01-30T02:18:52;24.50;36.40
36690;DHT22;22676;51.120;3.702;2023-01-30T02:26:59;24.50;36.50
36690;DHT22;22676;51.120;3.702;2023-01-30T02:30:18;24.40;36.70
36690;DHT22;22676;51.120;3.702;2023-01-30T02:34:49;24.30;36.70
36690;DHT22;22676;51.120;3.702;2023-01-30T02:37:39;24.30;36.70
36690;DHT22;22676;51.120;3.702;2023-01-30T02:40:11;24.30;36.70
36690;DHT22;22676;51.120;3.702;2023-01-30T02:42:47;24.30;36.20
36690;DHT22;22676;51.120;3.702;2023-01-30T02:47:48;24.10;36.80
36690;DHT22;22676;51.120;3.702;2023-01-30T02:50:19;23.90;37.50
36690;DHT22;22676;51.120;3.702;2023-01-30T02:52:45;23.80;37.00
36690;DHT22;22676;51.120;3.702;2023-01-30T02:55:22;23.80;37.10
36690;DHT22;22676;51.120;3.702;2023-01-30T02:57:48;23.80;37.10
36690;DHT22;22676;51.120;3.702;2023-01-30T03:00:15;23.80;37.10
36690;DHT22;22676;51.120;3.702;2023-01-30T03:13:04;23.80;37.10
36690;DHT22;22676;51.120;3.702;2023-01-30T03:15:40;23.70;37.20
36690;DHT22;22676;51.120;3.702;2023-01-30T03:18:07;23.70;37.30
36690;DHT22;22676;51.120;3.702;2023-01-30T03:20:37;23.70;37.20
36690;DHT22;22676;51.120;3.702;2023-01-30T03:23:03;23.70;37.20
36690;DHT22;22676;51.120;3.702;2023-01-30T03:25:28;23.70;37.30
36690;DHT22;22676;51.120;3.702;2023-01-30T03:27:55;23.60;37.30
36690;DHT22;22676;51.120;3.702;2023-01-30T03:30:21;23.60;37.30
36690;DHT22;22676;51.120;3.702;2023-01-30T03:32:47;23.60;37.30
36690;DHT22;22676;51.120;3.702;2023-01-30T03:35:13;23.60;37.40
36690;DHT22;22676;51.120;3.702;2023-01-30T03:37:42;23.50;37.50
36690;DHT22;22676;51.120;3.702;2023-01-30T03:40:08;23.50;37.50
36690;DHT22;22676;51.120;3.702;2023-01-30T03:42:34;23.60;37.20
36690;DHT22;22676;51.120;3.702;2023-01-30T03:44:59;23.60;37.20
36690;DHT22;22676;51.120;3.702;2023-01-30T03:47:25;23.50;37.30
36690;DHT22;22676;51.120;3.702;2023-01-30T03:49:50;23.40;37.60
36690;DHT22;22676;51.120;3.702;2023-01-30T03:52:16;23.30;37.70
36690;DHT22;22676;51.120;3.702;2023-01-30T03:54:41;23.30;37.70
36690;DHT22;22676;51.120;3.702;2023-01-30T03:57:07;23.30;37.60
36690;DHT22;22676;51.120;3.702;2023-01-30T03:59:33;23.30;38.20
36690;DHT22;22676;51.120;3.702;2023-01-30T04:01:58;23.30;37.60
36690;DHT22;22676;51.120;3.702;2023-01-30T04:04:24;23.30;37.70
36690;DHT22;22676;51.120;3.702;2023-01-30T04:06:49;23.20;37.60
36690;DHT22;22676;51.120;3.702;2023-01-30T04:09:15;23.30;37.70
36690;DHT22;22676;51.120;3.702;2023-01-30T04:11:40;23.20;37.60
36690;DHT22;22676;51.120;3.702;2023-01-30T04:14:06;23.20;37.60
36690;DHT22;22676;51.120;3.702;2023-01-30T04:16:31;23.20;37.70
36690;DHT22;22676;51.120;3.702;2023-01-30T04:18:57;23.10;37.80
36690;DHT22;22676;51.120;3.702;2023-01-30T04:21:22;23.10;37.80
36690;DHT22;22676;51.120;3.702;2023-01-30T04:23:48;23.20;37.70
36690;DHT22;22676;51.120;3.702;2023-01-30T04:26:13;23.10;37.70
36690;DHT22;22676;51.120;3.702;2023-01-30T04:28:39;23.10;38.00
36690;DHT22;22676;51.120;3.702;2023-01-30T04:31:05;23.10;37.90
36690;DHT22;22676;51.120;3.702;2023-01-30T04:33:31;23.10;37.90
36690;DHT22;22676;51.120;3.702;2023-01-30T04:35:59;23.00;37.90
36690;DHT22;22676;51.120;3.702;2023-01-30T04:38:26;23.00;37.90
36690;DHT22;22676;51.120;3.702;2023-01-30T04:40:52;23.00;37.80
36690;DHT22;22676;51.120;3.702;2023-01-30T04:43:18;23.20;37.40
36690;DHT22;22676;51.120;3.702;2023-01-30T04:45:44;23.20;37.40
36690;DHT22;22676;51.120;3.702;2023-01-30T04:48:10;23.00;37.80
36690;DHT22;22676;51.120;3.702;2023-01-30T04:50:36;22.90;37.90
36690;DHT22;22676;51.120;3.702;2023-01-30T04:53:02;22.90;38.00
36690;DHT22;22676;51.120;3.702;2023-01-30T04:55:27;22.80;38.00
36690;DHT22;22676;51.120;3.702;2023-01-30T04:57:53;22.90;38.00
36690;DHT22;22676;51.120;3.702;2023-01-30T05:00:18;22.80;38.00
36690;DHT22;22676;51.120;3.702;2023-01-30T05:02:44;22.80;38.00
36690;DHT22;22676;51.120;3.702;2023-01-30T05:05:09;22.70;38.20
36690;DHT22;22676;51.120;3.702;2023-01-30T05:07:35;22.60;38.40
36690;DHT22;22676;51.120;3.702;2023-01-30T05:10:01;22.60;38.50
36690;DHT22;22676;51.120;3.702;2023-01-30T05:12:27;22.60;38.50
36690;DHT22;22676;51.120;3.702;2023-01-30T05:14:53;22.60;38.50
36690;DHT22;22676;51.120;3.702;2023-01-30T05:17:18;22.70;38.40
36690;DHT22;22676;51.120;3.702;2023-01-30T05:19:44;22.70;38.20
36690;DHT22;22676;51.120;3.702;2023-01-30T05:22:09;22.80;38.10
36690;DHT22;22676;51.120;3.702;2023-01-30T05:24:35;22.90;38.00
36690;DHT22;22676;51.120;3.702;2023-01-30T05:27:01;23.10;37.80
36690;DHT22;22676;51.120;3.702;2023-01-30T05:29:26;23.10;37.70
36690;DHT22;22676;51.120;3.702;2023-01-30T05:31:52;23.20;37.60
36690;DHT22;22676;51.120;3.702;2023-01-30T05:34:17;23.30;37.50
36690;DHT22;22676;51.120;3.702;2023-01-30T05:36:43;23.40;37.50
36690;DHT22;22676;51.120;3.702;2023-01-30T05:39:09;23.40;37.30
36690;DHT22;22676;51.120;3.702;2023-01-30T05:41:34;23.60;37.00
36690;DHT22;22676;51.120;3.702;2023-01-30T05:44:00;23.80;36.50
36690;DHT22;22676;51.120;3.702;2023-01-30T05:46:25;23.90;36.40
36690;DHT22;22676;51.120;3.702;2023-01-30T05:48:51;23.70;36.90
36690;DHT22;22676;51.120;3.702;2023-01-30T05:51:26;23.70;37.50
36690;DHT22;22676;51.120;3.702;2023-01-30T05:53:51;23.70;37.90
36690;DHT22;22676;51.120;3.702;2023-01-30T05:56:18;23.70;37.90
36690;DHT22;22676;51.120;3.702;2023-01-30T05:58:49;23.80;37.90
36690;DHT22;22676;51.120;3.702;2023-01-30T06:01:14;23.80;37.90
36690;DHT22;22676;51.120;3.702;2023-01-30T06:03:40;24.00;37.50
36690;DHT22;22676;51.120;3.702;2023-01-30T06:06:05;24.10;37.50
36690;DHT22;22676;51.120;3.702;2023-01-30T06:08:31;24.20;37.40
36690;DHT22;22676;51.120;3.702;2023-01-30T06:11:00;24.20;37.30
36690;DHT22;22676;51.120;3.702;2023-01-30T06:13:26;24.20;37.30
36690;DHT22;22676;51.120;3.702;2023-01-30T06:15:52;24.30;37.20
36690;DHT22;22676;51.120;3.702;2023-01-30T06:18:17;24.30;37.20
36690;DHT22;22676;51.120;3.702;2023-01-30T06:20:49;24.40;37.10
36690;DHT22;22676;51.120;3.702;2023-01-30T06:23:15;24.50;37.00
36690;DHT22;22676;51.120;3.702;2023-01-30T06:25:44;24.50;37.00
36690;DHT22;22676;51.120;3.702;2023-01-30T06:28:10;24.60;36.80
36690;DHT22;22676;51.120;3.702;2023-01-30T06:30:35;24.80;35.70
36690;DHT22;22676;51.120;3.702;2023-01-30T06:33:01;24.80;34.70
36690;DHT22;22676;51.120;3.702;2023-01-30T06:35:26;24.70;34.70
36690;DHT22;22676;51.120;3.702;2023-01-30T06:37:52;24.60;35.00
36690;DHT22;22676;51.120;3.702;2023-01-30T06:40:18;24.50;35.30
36690;DHT22;22676;51.120;3.702;2023-01-30T06:42:44;24.50;35.30
36690;DHT22;22676;51.120;3.702;2023-01-30T06:45:10;24.50;35.30
36690;DHT22;22676;51.120;3.702;2023-01-30T06:47:42;24.40;35.40
36690;DHT22;22676;51.120;3.702;2023-01-30T06:50:08;24.30;35.70
36690;DHT22;22676;51.120;3.702;2023-01-30T06:52:34;24.20;35.90
36690;DHT22;22676;51.120;3.702;2023-01-30T06:54:59;24.20;36.10
36690;DHT22;22676;51.120;3.702;2023-01-30T06:57:25;24.10;36.20
36690;DHT22;22676;51.120;3.702;2023-01-30T06:59:50;24.10;36.30
36690;DHT22;22676;51.120;3.702;2023-01-30T07:02:16;24.00;36.40
36690;DHT22;22676;51.120;3.702;2023-01-30T07:04:41;24.00;36.50
36690;DHT22;22676;51.120;3.702;2023-01-30T07:07:07;24.00;36.50
36690;DHT22;22676;51.120;3.702;2023-01-30T07:09:32;24.00;36.60
36690;DHT22;22676;51.120;3.702;2023-01-30T07:11:58;24.00;36.60
36690;DHT22;22676;51.120;3.702;2023-01-30T07:14:24;24.00;36.60
36690;DHT22;22676;51.120;3.702;2023-01-30T07:16:49;24.00;36.70
36690;DHT22;22676;51.120;3.702;2023-01-30T07:19:15;24.10;36.70
36690;DHT22;22676;51.120;3.702;2023-01-30T07:21:40;24.10;36.60
36690;DHT22;22676;51.120;3.702;2023-01-30T07:24:06;24.10;36.50
36690;DHT22;22676;51.120;3.702;2023-01-30T07:26:32;24.10;36.50
36690;DHT22;22676;51.120;3.702;2023-01-30T07:28:57;24.20;36.50
36690;DHT22;22676;51.120;3.702;2023-01-30T07:31:23;24.20;36.50
36690;DHT22;22676;51.120;3.702;2023-01-30T07:33:48;24.10;36.40
36690;DHT22;22676;51.120;3.702;2023-01-30T07:36:14;24.10;36.50
36690;DHT22;22676;51.120;3.702;2023-01-30T07:38:39;24.10;36.60
36690;DHT22;22676;51.120;3.702;2023-01-30T07:41:05;24.20;36.50
36690;DHT22;22676;51.120;3.702;2023-01-30T07:43:30;24.30;36.10
36690;DHT22;22676;51.120;3.702;2023-01-30T07:45:56;24.30;35.90
36690;DHT22;22676;51.120;3.702;2023-01-30T07:48:21;24.20;36.00
36690;DHT22;22676;51.120;3.702;2023-01-30T07:50:47;24.20;36.20
36690;DHT22;22676;51.120;3.702;2023-01-30T07:53:14;24.20;36.40
36690;DHT22;22676;51.120;3.702;2023-01-30T07:55:40;24.20;36.40
36690;DHT22;22676;51.120;3.702;2023-01-30T07:58:06;24.20;36.50
36690;DHT22;22676;51.120;3.702;2023-01-30T08:00:31;24.20;36.50
36690;DHT22;22676;51.120;3.702;2023-01-30T08:02:57;24.10;36.70
36690;DHT22;22676;51.120;3.702;2023-01-30T08:05:23;24.20;36.80
36690;DHT22;22676;51.120;3.702;2023-01-30T08:07:48;24.20;36.80
36690;DHT22;22676;51.120;3.702;2023-01-30T08:10:14;24.40;36.70
36690;DHT22;22676;51.120;3.702;2023-01-30T08:12:39;24.50;36.60
36690;DHT22;22676;51.120;3.702;2023-01-30T08:15:06;24.60;36.60
36690;DHT22;22676;51.120;3.702;2023-01-30T08:17:32;24.70;36.50
36690;DHT22;22676;51.120;3.702;2023-01-30T08:19:58;24.70;36.50
36690;DHT22;22676;51.120;3.702;2023-01-30T08:22:24;24.80;36.50
36690;DHT22;22676;51.120;3.702;2023-01-30T08:24:49;24.90;36.40
36690;DHT22;22676;51.120;3.702;2023-01-30T08:27:15;25.00;36.30
36690;DHT22;22676;51.120;3.702;2023-01-30T08:29:40;25.00;36.40
36690;DHT22;22676;51.120;3.702;2023-01-30T08:32:06;25.00;36.40
36690;DHT22;22676;51.120;3.702;2023-01-30T08:34:31;25.10;36.30
36690;DHT22;22676;51.120;3.702;2023-01-30T08:36:57;25.30;36.10
36690;DHT22;22676;51.120;3.702;2023-01-30T08:39:22;25.20;36.20
36690;DHT22;22676;51.120;3.702;2023-01-30T08:41:48;25.40;35.60
36690;DHT22;22676;51.120;3.702;2023-01-30T08:44:13;25.60;35.20
36690;DHT22;22676;51.120;3.702;2023-01-30T08:46:39;25.60;35.30
36690;DHT22;22676;51.120;3.702;2023-01-30T08:49:05;25.40;35.60
36690;DHT22;22676;51.120;3.702;2023-01-30T08:51:30;25.20;35.80
36690;DHT22;22676;51.120;3.702;2023-01-30T08:53:56;25.20;35.90
36690;DHT22;22676;51.120;3.702;2023-01-30T08:56:21;25.20;36.10
36690;DHT22;22676;51.120;3.702;2023-01-30T08:58:47;25.20;36.10
36690;DHT22;22676;51.120;3.702;2023-01-30T09:01:13;25.20;36.00
36690;DHT22;22676;51.120;3.702;2023-01-30T09:03:39;25.10;35.90
36690;DHT22;22676;51.120;3.702;2023-01-30T09:06:04;25.30;36.20
36690;DHT22;22676;51.120;3.702;2023-01-30T09:08:30;25.30;35.80
36690;DHT22;22676;51.120;3.702;2023-01-30T09:11:02;25.20;35.90
36690;DHT22;22676;51.120;3.702;2023-01-30T09:13:28;25.30;35.70
36690;DHT22;22676;51.120;3.702;2023-01-30T09:15:55;25.40;35.70
36690;DHT22;22676;51.120;3.702;2023-01-30T09:18:21;25.50;35.70
36690;DHT22;22676;51.120;3.702;2023-01-30T09:20:47;25.60;35.50
36690;DHT22;22676;51.120;3.702;2023-01-30T09:23:12;25.50;35.40
36690;DHT22;22676;51.120;3.702;2023-01-30T09:25:38;25.50;35.50
36690;DHT22;22676;51.120;3.702;2023-01-30T09:28:03;25.60;35.30
36690;DHT22;22676;51.120;3.702;2023-01-30T09:30:29;25.60;35.30
36690;DHT22;22676;51.120;3.702;2023-01-30T09:32:54;25.70;35.20
36690;DHT22;22676;51.120;3.702;2023-01-30T09:35:20;25.70;34.90
36690;DHT22;22676;51.120;3.702;2023-01-30T09:37:49;25.70;34.90
36690;DHT22;22676;51.120;3.702;2023-01-30T09:40:16;25.60;35.00
36690;DHT22;22676;51.120;3.702;2023-01-30T09:45:33;25.60;34.50
36690;DHT22;22676;51.120;3.702;2023-01-30T09:48:11;25.40;34.90
36690;DHT22;22676;51.120;3.702;2023-01-30T09:50:45;25.40;34.90
36690;DHT22;22676;51.120;3.702;2023-01-30T09:53:24;25.50;34.90
36690;DHT22;22676;51.120;3.702;2023-01-30T09:55:51;25.60;34.80
36690;DHT22;22676;51.120;3.702;2023-01-30T09:58:20;25.60;34.80
36690;DHT22;22676;51.120;3.702;2023-01-30T10:00:46;25.60;34.70
36690;DHT22;22676;51.120;3.702;2023-01-30T10:03:14;25.60;34.60
36690;DHT22;22676;51.120;3.702;2023-01-30T10:05:42;25.60;34.70
36690;DHT22;22676;51.120;3.702;2023-01-30T10:10:47;25.60;34.50
36690;DHT22;22676;51.120;3.702;2023-01-30T10:13:40;25.60;34.60
36690;DHT22;22676;51.120;3.702;2023-01-30T10:16:23;25.50;34.60
36690;DHT22;22676;51.120;3.702;2023-01-30T10:24:22;25.50;34.60
36690;DHT22;22676;51.120;3.702;2023-01-30T10:26:51;25.50;34.50
36690;DHT22;22676;51.120;3.702;2023-01-30T10:29:19;25.50;34.50
36690;DHT22;22676;51.120;3.702;2023-01-30T10:31:49;25.40;35.00
36690;DHT22;22676;51.120;3.702;2023-01-30T10:34:28;25.40;34.40
36690;DHT22;22676;51.120;3.702;2023-01-30T10:39:55;25.40;34.60
36690;DHT22;22676;51.120;3.702;2023-01-30T10:42:37;25.40;34.30
36690;DHT22;22676;51.120;3.702;2023-01-30T10:45:12;25.40;34.30
36690;DHT22;22676;51.120;3.702;2023-01-30T10:50:18;25.30;34.70
36690;DHT22;22676;51.120;3.702;2023-01-30T10:58:04;25.30;34.70
36690;DHT22;22676;51.120;3.702;2023-01-30T11:00:37;25.40;34.80
36690;DHT22;22676;51.120;3.702;2023-01-30T11:08:13;25.40;34.80
36690;DHT22;22676;51.120;3.702;2023-01-30T11:10:40;25.40;34.70
36690;DHT22;22676;51.120;3.702;2023-01-30T11:13:11;25.40;34.70
36690;DHT22;22676;51.120;3.702;2023-01-30T11:15:41;25.40;34.70
36690;DHT22;22676;51.120;3.702;2023-01-30T11:18:08;25.40;34.50
36690;DHT22;22676;51.120;3.702;2023-01-30T11:20:40;25.40;34.50
36690;DHT22;22676;51.120;3.702;2023-01-30T11:23:52;25.40;34.70
36690;DHT22;22676;51.120;3.702;2023-01-30T11:25:56;25.40;34.50
36690;DHT22;22676;51.120;3.702;2023-01-30T11:28:22;25.40;34.50
36690;DHT22;22676;51.120;3.702;2023-01-30T11:30:51;25.40;34.20
36690;DHT22;22676;51.120;3.702;2023-01-30T11:33:17;25.50;34.20
36690;DHT22;22676;51.120;3.702;2023-01-30T11:35:54;25.40;34.10
36690;DHT22;22676;51.120;3.702;2023-01-30T11:38:23;25.50;34.10
36690;DHT22;22676;51.120;3.702;2023-01-30T11:40:49;25.40;33.90
36690;DHT22;22676;51.120;3.702;2023-01-30T11:43:25;25.40;33.80
36690;DHT22;22676;51.120;3.702;2023-01-30T11:45:52;25.30;33.40
36690;DHT22;22676;51.120;3.702;2023-01-30T11:48:20;25.30;33.70
36690;DHT22;22676;51.120;3.702;2023-01-30T11:50:47;25.30;33.90
36690;DHT22;22676;51.120;3.702;2023-01-30T11:55:45;25.40;33.70
36690;DHT22;22676;51.120;3.702;2023-01-30T11:58:11;25.40;33.60
36690;DHT22;22676;51.120;3.702;2023-01-30T12:00:41;25.40;33.70
36690;DHT22;22676;51.120;3.702;2023-01-30T12:03:11;25.30;34.00
36690;DHT22;22676;51.120;3.702;2023-01-30T12:05:38;25.40;33.80
36690;DHT22;22676;51.120;3.702;2023-01-30T12:08:11;25.30;33.80
36690;DHT22;22676;51.120;3.702;2023-01-30T12:10:42;25.10;34.00
36690;DHT22;22676;51.120;3.702;2023-01-30T12:15:56;25.20;33.90
36690;DHT22;22676;51.120;3.702;2023-01-30T12:18:23;25.30;33.80
36690;DHT22;22676;51.120;3.702;2023-01-30T12:28:36;25.50;33.40
36690;DHT22;22676;51.120;3.702;2023-01-30T12:33:29;25.60;33.30
36690;DHT22;22676;51.120;3.702;2023-01-30T12:38:46;25.60;33.40
36690;DHT22;22676;51.120;3.702;2023-01-30T12:46:32;25.60;33.10
36690;DHT22;22676;51.120;3.702;2023-01-30T12:49:07;25.50;33.20
36690;DHT22;22676;51.120;3.702;2023-01-30T12:59:32;25.70;33.60
36690;DHT22;22676;51.120;3.702;2023-01-30T13:15:06;25.80;33.60
36690;DHT22;22676;51.120;3.702;2023-01-30T13:17:41;25.90;33.70
36690;DHT22;22676;51.120;3.702;2023-01-30T13:25:15;26.00;33.30
36690;DHT22;22676;51.120;3.702;2023-01-30T13:27:43;26.10;33.40
36690;DHT22;22676;51.120;3.702;2023-01-30T13:30:12;26.20;33.30
36690;DHT22;22676;51.120;3.702;2023-01-30T13:32:39;26.20;33.10
36690;DHT22;22676;51.120;3.702;2023-01-30T13:35:54;26.20;33.10
36690;DHT22;22676;51.120;3.702;2023-01-30T13:37:54;26.20;33.70
36690;DHT22;22676;51.120;3.702;2023-01-30T13:40:23;26.20;33.10
36690;DHT22;22676;51.120;3.702;2023-01-30T13:45:16;26.30;32.50
36690;DHT22;22676;51.120;3.702;2023-01-30T14:00:32;26.60;32.40
36690;DHT22;22676;51.120;3.702;2023-01-30T14:08:20;26.80;32.40
36690;DHT22;22676;51.120;3.702;2023-01-30T14:10:46;26.80;32.10
36690;DHT22;22676;51.120;3.702;2023-01-30T14:13:12;26.90;31.90
36690;DHT22;22676;51.120;3.702;2023-01-30T14:15:39;26.90;32.00
36690;DHT22;22676;51.120;3.702;2023-01-30T14:18:22;26.80;32.00
36690;DHT22;22676;51.120;3.702;2023-01-30T14:20:48;26.70;32.00
36690;DHT22;22676;51.120;3.702;2023-01-30T14:25:47;26.50;32.10
36690;DHT22;22676;51.120;3.702;2023-01-30T14:30:48;26.30;32.20
36690;DHT22;22676;51.120;3.702;2023-01-30T14:35:46;26.20;32.60
36690;DHT22;22676;51.120;3.702;2023-01-30T14:38:13;26.10;32.50
36690;DHT22;22676;51.120;3.702;2023-01-30T14:40:44;26.00;32.70
36690;DHT22;22676;51.120;3.702;2023-01-30T14:45:57;25.90;32.50
36690;DHT22;22676;51.120;3.702;2023-01-30T14:56:15;25.40;33.60
36690;DHT22;22676;51.120;3.702;2023-01-30T14:58:55;25.30;33.50
36690;DHT22;22676;51.120;3.702;2023-01-30T15:01:24;25.30;33.40
36690;DHT22;22676;51.120;3.702;2023-01-30T15:03:50;25.20;33.40
36690;DHT22;22676;51.120;3.702;2023-01-30T15:06:15;25.20;33.40
36690;DHT22;22676;51.120;3.702;2023-01-30T15:08:41;25.20;33.40
36690;DHT22;22676;51.120;3.702;2023-01-30T15:19:00;25.00;33.60
36690;DHT22;22676;51.120;3.702;2023-01-30T15:24:19;24.80;33.70
36690;DHT22;22676;51.120;3.702;2023-01-30T15:26:51;24.80;33.70
36690;DHT22;22676;51.120;3.702;2023-01-30T15:29:32;24.80;33.80
36690;DHT22;22676;51.120;3.702;2023-01-30T15:32:15;24.70;33.80
36690;DHT22;22676;51.120;3.702;2023-01-30T15:34:47;24.70;33.80
36690;DHT22;22676;51.120;3.702;2023-01-30T15:37:29;24.70;33.90
36690;DHT22;22676;51.120;3.702;2023-01-30T15:45:25;24.50;33.50
36690;DHT22;22676;51.120;3.702;2023-01-30T15:48:06;24.40;33.60
36690;DHT22;22676;51.120;3.702;2023-01-30T15:50:35;24.40;33.80
36690;DHT22;22676;51.120;3.702;2023-01-30T15:53:01;24.30;33.90
36690;DHT22;22676;51.120;3.702;2023-01-30T15:55:33;24.20;34.10
36690;DHT22;22676;51.120;3.702;2023-01-30T15:58:01;24.10;34.50
36690;DHT22;22676;51.120;3.702;2023-01-30T16:00:29;24.00;34.90
36690;DHT22;22676;51.120;3.702;2023-01-30T16:02:56;23.90;35.30
36690;DHT22;22676;51.120;3.702;2023-01-30T16:05:22;24.00;35.30
36690;DHT22;22676;51.120;3.702;2023-01-30T16:07:49;24.00;35.10
36690;DHT22;22676;51.120;3.702;2023-01-30T16:12:41;24.30;35.00
36690;DHT22;22676;51.120;3.702;2023-01-30T16:15:19;24.40;34.80
36690;DHT22;22676;51.120;3.702;2023-01-30T16:18:19;24.40;35.30
36690;DHT22;22676;51.120;3.702;2023-01-30T16:20:42;24.40;34.80
36690;DHT22;22676;51.120;3.702;2023-01-30T16:23:18;24.50;34.70
36690;DHT22;22676;51.120;3.702;2023-01-30T16:25:45;24.50;34.60
36690;DHT22;22676;51.120;3.702;2023-01-30T16:28:11;24.60;34.60
36690;DHT22;22676;51.120;3.702;2023-01-30T16:30:37;24.70;34.50
36690;DHT22;22676;51.120;3.702;2023-01-30T16:33:06;24.70;34.30
36690;DHT22;22676;51.120;3.702;2023-01-30T16:35:34;24.70;34.50
36690;DHT22;22676;51.120;3.702;2023-01-30T16:40:51;24.70;34.60
36690;DHT22;22676;51.120;3.702;2023-01-30T16:43:18;24.70;34.00
36690;DHT22;22676;51.120;3.702;2023-01-30T16:53:24;24.70;34.60
36690;DHT22;22676;51.120;3.702;2023-01-30T16:56:13;24.70;34.70
36690;DHT22;22676;51.120;3.702;2023-01-30T16:58:36;24.80;34.70
36690;DHT22;22676;51.120;3.702;2023-01-30T17:01:03;24.70;34.70
36690;DHT22;22676;51.120;3.702;2023-01-30T17:03:41;24.80;34.60
36690;DHT22;22676;51.120;3.702;2023-01-30T17:06:08;24.80;34.60
36690;DHT22;22676;51.120;3.702;2023-01-30T17:16:40;24.80;34.50
36690;DHT22;22676;51.120;3.702;2023-01-30T17:19:07;24.70;34.70
36690;DHT22;22676;51.120;3.702;2023-01-30T17:21:36;24.70;34.60
36690;DHT22;22676;51.120;3.702;2023-01-30T17:24:03;24.60;34.60
36690;DHT22;22676;51.120;3.702;2023-01-30T17:26:29;24.60;35.10
36690;DHT22;22676;51.120;3.702;2023-01-30T17:28:55;24.70;35.20
36690;DHT22;22676;51.120;3.702;2023-01-30T17:31:20;24.80;35.30
36690;DHT22;22676;51.120;3.702;2023-01-30T17:33:46;24.90;35.20
36690;DHT22;22676;51.120;3.702;2023-01-30T17:36:33;25.00;35.10
36690;DHT22;22676;51.120;3.702;2023-01-30T17:38:57;24.90;35.20
36690;DHT22;22676;51.120;3.702;2023-01-30T17:41:27;24.90;35.20
36690;DHT22;22676;51.120;3.702;2023-01-30T17:43:55;24.90;35.30
36690;DHT22;22676;51.120;3.702;2023-01-30T17:46:22;24.90;35.30
36690;DHT22;22676;51.120;3.702;2023-01-30T17:48:47;25.00;34.90
36690;DHT22;22676;51.120;3.702;2023-01-30T17:51:13;25.00;34.70
36690;DHT22;22676;51.120;3.702;2023-01-30T17:53:39;25.00;34.80
36690;DHT22;22676;51.120;3.702;2023-01-30T17:56:07;24.80;34.80
36690;DHT22;22676;51.120;3.702;2023-01-30T17:58:35;24.70;35.00
36690;DHT22;22676;51.120;3.702;2023-01-30T18:01:00;24.70;35.30
36690;DHT22;22676;51.120;3.702;2023-01-30T18:03:26;24.70;35.20
36690;DHT22;22676;51.120;3.702;2023-01-30T18:05:51;24.70;35.10
36690;DHT22;22676;51.120;3.702;2023-01-30T18:08:17;24.80;35.00
36690;DHT22;22676;51.120;3.702;2023-01-30T18:10:42;24.80;34.60
36690;DHT22;22676;51.120;3.702;2023-01-30T18:13:08;24.80;34.80
36690;DHT22;22676;51.120;3.702;2023-01-30T18:15:33;24.70;34.70
36690;DHT22;22676;51.120;3.702;2023-01-30T18:17:59;24.70;34.60
36690;DHT22;22676;51.120;3.702;2023-01-30T18:20:25;24.70;34.60
36690;DHT22;22676;51.120;3.702;2023-01-30T18:22:50;24.70;34.40
36690;DHT22;22676;51.120;3.702;2023-01-30T18:25:16;24.80;34.70
36690;DHT22;22676;51.120;3.702;2023-01-30T18:27:42;24.80;34.30